Airfield :







YOU CAN JOIN US ON...

 
LOGIN :

Register | Disclaimer

   EN    FR    IT 

 









Legend :    VFR   Marginal VFR   IFR   Intensive IFR   Very Intensive IFR
Visi :
Ceiling :
>= 8 km
>= 3000ft
5 to 8 km
1000 to 3000 ft
1500m to 5 km
500 to 1000 ft
800 to 1500m
200 to 500 ft
< 800m
< 200 ft
Symbols :   Thunderstorms  Fog  Heavy snow  Heavy precipitations  Wind > 20 kt







- Airport Elevation : 13 ft
- IATA code : SXM


TNCM - Princess Juliana Int.

CURRENT METAR :
  • 161400Z 10015KT 9999 SCT018 32/26 Q1015 A2999 NOSIG

EXPIRED METARs :
  • 161300Z 09014KT 9999 FEW///CB FEW018 31/26 Q1015 A2997 NOSIG RMK CB NW/ S
  • 161200Z 10010KT 9999 VCSH FEW///CB SCT016 SCT035 30/26 Q1014 A2996 NOSIG RMK CB ENE/ VCSH NE

TAF TNCM
Valid from the 16 at 12:00 until the 17 at 12:00 UTC


161128Z 1612/1712 08013KT P6SM VCSH SCT016 SCT035
FM161400 11012KT P6SM VCSH SCT016 SCT035
FM162300 09009KT P6SM FEW018
No reported NOTAMs for that airfield.



MET'MAP, your aeronautical weather chart ! - Copyright ORBIFLY December 2007 - Disclaimer

ORBIFLY MET'MAP TEAM :

Programming & Development : Alexandra Zaïnal
Concept & Development : Baudouin d'Aumeries
Co-Development & Prog : Marc-Olivier Méhu
Technical & hardware support : Manuel Goepfert

Contact : metmap@orbifly.com




SOURCES & CREDITS :

   NOAA